Time;durP1;ratioP1;P1;durP2;ratioP2;P2;SDS_P1;SDS_P2;PMS_P1;PMS_P2;Temp;Humidity;BMP_temperature;BMP_pressure;BME280_temperature;BME280_humidity;BME280_pressure;Samples;Min_cycle;Max_cycle;Signal;HPM_P1;HPM_P2
2021/07/24 00:00:49;;;;;;;17.85;13.85;;;;;;;13.96;100.00;92675.41;2097256;28;20532;-83
2021/07/24 00:01:51;;;;;;;19.00;13.65;;;;;;;13.94;100.00;92675.09;2090014;28;20082;-83
2021/07/24 00:02:52;;;;;;;22.85;13.90;;;;;;;13.96;100.00;92678.09;2097622;28;20025;-84
2021/07/24 00:03:53;;;;;;;18.05;13.60;;;;;;;13.99;100.00;92679.84;2081629;28;20033;-83
2021/07/24 00:04:54;;;;;;;17.92;13.48;;;;;;;13.96;100.00;92680.78;2089466;28;20116;-83
2021/07/24 00:05:55;;;;;;;18.45;13.50;;;;;;;13.98;100.00;92681.06;2089619;28;20028;-82
2021/07/24 00:06:59;;;;;;;18.17;13.23;;;;;;;13.91;100.00;92692.09;2097562;28;20027;-83
2021/07/24 00:08:00;;;;;;;21.15;13.07;;;;;;;13.95;100.00;92686.56;2105613;28;20123;-83
2021/07/24 00:09:04;;;;;;;16.33;13.15;;;;;;;13.85;100.00;92689.25;2098942;27;20028;-83
2021/07/24 00:10:06;;;;;;;17.75;12.60;;;;;;;13.89;100.00;92685.69;2104959;28;20051;-83
2021/07/24 00:11:09;;;;;;;17.48;13.30;;;;;;;13.84;100.00;92687.78;2098053;28;20099;-83
2021/07/24 00:12:13;;;;;;;17.75;14.00;;;;;;;13.79;100.00;92685.69;2108321;28;20032;-83
2021/07/24 00:13:14;;;;;;;17.30;13.18;;;;;;;13.86;100.00;92671.94;2108819;28;20392;-83
2021/07/24 00:14:16;;;;;;;17.73;13.07;;;;;;;13.85;100.00;92677.78;2100395;28;20139;-83
2021/07/24 00:15:17;;;;;;;18.45;14.30;;;;;;;13.89;100.00;92681.06;2092532;28;20115;-83
2021/07/24 00:16:17;;;;;;;19.50;13.85;;;;;;;13.89;100.00;92673.00;2094950;28;20048;-83
2021/07/24 00:17:18;;;;;;;18.73;13.65;;;;;;;13.84;100.00;92677.03;2101127;28;20476;-84
2021/07/24 00:18:19;;;;;;;22.85;13.30;;;;;;;13.85;100.00;92673.13;2102855;28;20024;-82
2021/07/24 00:19:20;;;;;;;16.98;12.95;;;;;;;13.83;100.00;92669.41;2101388;28;20027;-83
2021/07/24 00:20:21;;;;;;;19.15;12.57;;;;;;;13.79;100.00;92677.63;2102585;28;20025;-82
2021/07/24 00:21:22;;;;;;;20.42;13.25;;;;;;;13.80;100.00;92673.75;2093294;28;20024;-84
2021/07/24 00:22:23;;;;;;;18.33;13.13;;;;;;;13.80;100.00;92670.31;2094154;28;20048;-82
2021/07/24 00:23:24;;;;;;;19.83;13.10;;;;;;;13.81;100.00;92667.16;2101643;28;20023;-83
2021/07/24 00:24:25;;;;;;;17.42;13.75;;;;;;;13.78;100.00;92664.63;2093870;28;20051;-83
2021/07/24 00:25:27;;;;;;;16.65;12.50;;;;;;;13.80;100.00;92657.63;2081294;28;20059;-83
2021/07/24 00:26:28;;;;;;;17.52;12.57;;;;;;;13.71;100.00;92664.94;2085358;28;20021;-83
2021/07/24 00:27:28;;;;;;;18.55;12.85;;;;;;;13.73;100.00;92662.53;2093996;28;20048;-83
2021/07/24 00:28:29;;;;;;;18.83;13.75;;;;;;;13.75;100.00;92663.59;2101263;28;20497;-84
2021/07/24 00:29:30;;;;;;;15.05;12.70;;;;;;;13.71;100.00;92654.19;2089430;28;20070;-83
2021/07/24 00:30:31;;;;;;;21.10;13.65;;;;;;;13.77;100.00;92652.38;2098390;28;20025;-82
2021/07/24 00:31:35;;;;;;;18.73;13.60;;;;;;;13.79;100.00;92650.75;2100809;28;20112;-83
2021/07/24 00:32:36;;;;;;;19.55;13.90;;;;;;;13.74;100.00;92650.59;2090449;28;20080;-83
2021/07/24 00:33:37;;;;;;;18.63;13.10;;;;;;;13.71;100.00;92652.25;2105994;28;20055;-83
2021/07/24 00:34:38;;;;;;;17.10;12.23;;;;;;;13.72;100.00;92652.97;2097687;28;20036;-82
2021/07/24 00:35:39;;;;;;;16.98;13.77;;;;;;;13.73;100.00;92649.09;2101407;28;20706;-83
2021/07/24 00:36:40;;;;;;;19.45;13.15;;;;;;;13.73;100.00;92649.09;2105886;28;20008;-83
2021/07/24 00:37:40;;;;;;;20.10;13.10;;;;;;;13.73;100.00;92644.47;2106237;28;20031;-83
2021/07/24 00:38:41;;;;;;;19.70;13.40;;;;;;;13.60;100.00;92635.81;2097482;28;20028;-83
2021/07/24 00:39:42;;;;;;;19.35;12.52;;;;;;;13.62;100.00;92644.19;2089506;28;20032;-84
2021/07/24 00:40:51;;;;;;;19.80;13.15;;;;;;;13.63;100.00;92636.88;2081208;28;20367;-83
2021/07/24 00:42:11;;;;;;;19.58;13.35;;;;;;;13.52;100.00;92638.06;2091684;28;20033;-83
2021/07/24 00:43:13;;;;;;;17.98;12.48;;;;;;;13.54;100.00;92632.22;2102635;28;20420;-83
2021/07/24 00:44:20;;;;;;;18.35;12.50;;;;;;;13.59;100.00;92629.69;2108808;28;20103;-84
2021/07/24 00:45:24;;;;;;;18.05;13.27;;;;;;;13.62;100.00;92622.69;2094973;28;20045;-83
2021/07/24 00:46:29;;;;;;;19.60;12.65;;;;;;;13.58;100.00;92617.47;2085091;28;20071;-83
2021/07/24 00:47:42;;;;;;;19.02;13.38;;;;;;;13.58;100.00;92617.47;2102801;28;20020;-83
2021/07/24 00:48:43;;;;;;;17.05;13.13;;;;;;;13.57;100.00;92618.66;2109346;28;20047;-84
2021/07/24 00:49:46;;;;;;;17.60;13.00;;;;;;;13.49;100.00;92609.41;2097641;28;20114;-83
2021/07/24 00:50:49;;;;;;;16.80;12.85;;;;;;;13.50;100.00;92618.94;2085169;28;20033;-83
2021/07/24 00:51:53;;;;;;;18.98;12.82;;;;;;;13.53;100.00;92606.56;2096953;28;20040;-82
2021/07/24 00:53:00;;;;;;;19.10;13.02;;;;;;;13.54;100.00;92600.00;2089581;28;20017;-83
2021/07/24 00:54:02;;;;;;;21.75;13.88;;;;;;;13.53;100.00;92591.22;2091604;28;20031;-83
2021/07/24 00:55:04;;;;;;;20.20;13.45;;;;;;;13.54;100.00;92587.31;2096311;28;20021;-83
2021/07/24 00:56:06;;;;;;;19.17;14.13;;;;;;;13.55;100.00;92585.38;2082431;28;20550;-83
2021/07/24 00:57:08;;;;;;;20.45;14.05;;;;;;;13.53;100.00;92590.47;2090976;28;20029;-83
2021/07/24 00:58:37;;;;;;;18.00;13.60;;;;;;;13.49;100.00;92593.28;2087631;28;20049;-83
2021/07/24 00:59:39;;;;;;;18.92;13.52;;;;;;;13.53;100.00;92593.16;2094344;28;20031;-83
2021/07/24 01:00:40;;;;;;;18.60;13.00;;;;;;;13.54;100.00;92600.00;2099844;28;20413;-83
2021/07/24 01:01:42;;;;;;;19.10;13.35;;;;;;;13.53;100.00;92604.63;2103706;28;20036;-83
2021/07/24 01:02:43;;;;;;;18.83;13.10;;;;;;;13.52;100.00;92611.19;2098896;28;20044;-83
2021/07/24 01:03:44;;;;;;;18.17;13.38;;;;;;;13.45;100.00;92614.16;2080945;28;20610;-83
2021/07/24 01:04:45;;;;;;;19.67;13.88;;;;;;;13.43;100.00;92618.47;2087626;28;20037;-83
2021/07/24 01:05:50;;;;;;;16.95;13.07;;;;;;;13.43;100.00;92618.47;2091174;28;20059;-83
2021/07/24 01:06:51;;;;;;;19.58;12.93;;;;;;;13.45;100.00;92621.47;2083407;28;20099;-83
2021/07/24 01:07:52;;;;;;;19.58;13.60;;;;;;;13.48;100.00;92623.28;2089379;28;20027;-83
2021/07/24 01:08:53;;;;;;;19.77;13.02;;;;;;;13.42;100.00;92619.69;2097065;28;20035;-82
2021/07/24 01:09:56;;;;;;;16.55;12.75;;;;;;;13.39;100.00;92624.00;2097663;28;20115;-82
2021/07/24 01:10:58;;;;;;;21.13;13.82;;;;;;;13.42;100.00;92620.41;2089981;28;20033;-83
2021/07/24 01:12:01;;;;;;;20.27;14.02;;;;;;;13.45;100.00;92618.78;2113990;28;20508;-83
2021/07/24 01:13:02;;;;;;;17.73;12.98;;;;;;;13.39;100.00;92618.66;2098450;28;20033;-83
2021/07/24 01:14:04;;;;;;;17.10;13.00;;;;;;;13.37;100.00;92617.59;2105741;28;20024;-83
2021/07/24 01:15:05;;;;;;;21.48;13.45;;;;;;;13.41;100.00;92623.56;2113915;28;20743;-83
2021/07/24 01:16:10;;;;;;;18.48;12.93;;;;;;;13.27;100.00;92617.56;2098804;28;20031;-84
2021/07/24 01:17:10;;;;;;;17.65;13.05;;;;;;;13.33;100.00;92620.41;2104709;28;20040;-83
2021/07/24 01:18:12;;;;;;;15.70;12.60;;;;;;;13.34;100.00;92625.34;2097260;28;20027;-83
2021/07/24 01:19:13;;;;;;;16.00;13.43;;;;;;;13.35;100.00;92616.09;2089301;28;20051;-83
2021/07/24 01:20:16;;;;;;;22.27;14.25;;;;;;;13.33;100.00;92625.78;2099989;28;20078;-84
2021/07/24 01:21:28;;;;;;;16.80;14.02;;;;;;;13.40;100.00;92630.13;2111455;28;20077;-85
2021/07/24 01:22:28;;;;;;;17.25;13.25;;;;;;;13.36;100.00;92627.59;2111641;27;20028;-83
2021/07/24 01:23:30;;;;;;;15.40;12.73;;;;;;;13.31;100.00;92622.81;2105846;28;20028;-85
2021/07/24 01:24:31;;;;;;;18.95;13.27;;;;;;;13.40;100.00;92622.81;2101161;28;20023;-84
2021/07/24 01:25:32;;;;;;;20.77;14.48;;;;;;;13.40;100.00;92628.19;2097297;28;20048;-83
2021/07/24 01:26:35;;;;;;;19.17;13.50;;;;;;;13.37;100.00;92622.97;2101252;28;20053;-84
2021/07/24 01:27:43;;;;;;;18.80;13.90;;;;;;;13.42;100.00;92630.41;2097798;28;20039;-84
2021/07/24 01:28:44;;;;;;;16.15;13.27;;;;;;;13.45;100.00;92632.22;2091012;28;20028;-84
2021/07/24 01:29:45;;;;;;;19.05;13.00;;;;;;;13.41;100.00;92635.03;2097301;28;20858;-84
2021/07/24 01:30:46;;;;;;;16.95;13.73;;;;;;;13.45;100.00;92641.03;2095771;28;20031;-84
2021/07/24 01:31:48;;;;;;;18.92;13.45;;;;;;;13.44;100.00;92638.78;2098561;28;20032;-84
2021/07/24 01:32:49;;;;;;;19.15;13.23;;;;;;;13.47;100.00;92644.00;2096244;28;20046;-84
2021/07/24 01:33:50;;;;;;;16.70;13.63;;;;;;;13.46;100.00;92641.75;2098170;28;20025;-84
2021/07/24 01:34:50;;;;;;;20.95;13.60;;;;;;;13.50;100.00;92650.41;2105639;28;20053;-84
2021/07/24 01:35:52;;;;;;;19.38;14.40;;;;;;;13.48;100.00;92652.81;2088937;28;20021;-84
2021/07/24 01:36:53;;;;;;;18.02;14.43;;;;;;;13.45;100.00;92654.44;2093031;28;20017;-84
2021/07/24 01:37:54;;;;;;;18.92;13.05;;;;;;;13.45;100.00;92653.69;2105204;28;20035;-83
2021/07/24 01:38:55;;;;;;;18.73;13.52;;;;;;;13.44;100.00;92655.63;2097100;28;20035;-84
2021/07/24 01:39:56;;;;;;;17.33;14.50;;;;;;;13.48;100.00;92656.25;2089020;28;20029;-84
2021/07/24 01:40:57;;;;;;;17.05;13.10;;;;;;;13.48;100.00;92652.81;2097304;28;20035;-83
2021/07/24 01:41:58;;;;;;;16.80;13.30;;;;;;;13.48;100.00;92660.88;2109670;28;20111;-83
2021/07/24 01:42:59;;;;;;;18.48;13.85;;;;;;;13.52;100.00;92661.44;2105330;28;20024;-83
2021/07/24 01:44:00;;;;;;;18.20;13.63;;;;;;;13.54;100.00;92665.19;2106586;28;20492;-83
2021/07/24 01:45:01;;;;;;;17.80;13.88;;;;;;;13.48;100.00;92658.94;2104909;28;20039;-83
2021/07/24 01:46:03;;;;;;;18.23;14.32;;;;;;;13.50;100.00;92661.91;2097234;28;20025;-82
2021/07/24 01:47:04;;;;;;;17.52;12.77;;;;;;;13.54;100.00;92659.81;2105568;28;20043;-83
2021/07/24 01:48:11;;;;;;;15.13;12.73;;;;;;;13.55;100.00;92672.06;2095892;28;20024;-83
2021/07/24 01:49:19;;;;;;;18.27;13.40;;;;;;;13.51;100.00;92665.34;2097716;28;20467;-83
2021/07/24 01:53:14;;;;;;;17.20;12.57;;;;;;;13.51;100.00;92670.72;2105226;28;20038;-83
2021/07/24 01:54:30;;;;;;;17.77;13.95;;;;;;;13.45;100.00;92662.50;2101629;28;20035;-83
2021/07/24 01:55:47;;;;;;;18.83;13.13;;;;;;;13.46;100.00;92660.56;2098344;28;20033;-84
2021/07/24 01:56:49;;;;;;;18.42;12.85;;;;;;;13.49;100.00;92665.03;2099919;28;20028;-84
2021/07/24 01:57:53;;;;;;;16.25;12.75;;;;;;;13.51;100.00;92671.44;2103701;28;20024;-84
2021/07/24 01:58:54;;;;;;;17.80;13.38;;;;;;;13.52;100.00;92674.88;2097459;28;20024;-84
2021/07/24 01:59:59;;;;;;;19.50;13.55;;;;;;;13.47;100.00;92672.78;2096682;28;20459;-83
2021/07/24 02:01:04;;;;;;;15.95;13.25;;;;;;;13.50;100.00;92686.06;2108244;28;20024;-84
2021/07/24 02:02:05;;;;;;;15.93;13.02;;;;;;;13.44;100.00;92671.75;2093516;28;20024;-83
2021/07/24 02:03:13;;;;;;;16.02;12.95;;;;;;;13.50;100.00;92678.00;2091716;28;20028;-84
2021/07/24 02:04:17;;;;;;;17.92;13.45;;;;;;;13.51;100.00;92671.44;2092998;28;20041;-83
2021/07/24 02:06:28;;;;;;;;;;;;;;;13.46;100.00;92671.28;2139664;27;20118;-83
2021/07/24 02:07:35;;;;;;;17.92;12.70;;;;;;;13.51;100.00;92676.81;2122558;27;19935;-83
2021/07/24 02:08:36;;;;;;;17.48;12.40;;;;;;;13.55;100.00;92680.09;2117209;27;20583;-83
2021/07/24 02:09:37;;;;;;;20.98;14.20;;;;;;;13.54;100.00;92673.25;2118240;28;20504;-83
2021/07/24 02:10:42;;;;;;;17.30;13.73;;;;;;;13.53;100.00;92671.75;2100828;28;20036;-82
2021/07/24 02:11:45;;;;;;;15.82;13.57;;;;;;;13.57;100.00;92677.00;2101800;28;20041;-84
2021/07/24 02:12:46;;;;;;;16.73;12.63;;;;;;;13.55;100.00;92672.06;2096925;28;20032;-83
2021/07/24 02:13:48;;;;;;;17.58;11.88;;;;;;;13.57;100.00;92675.06;2105977;28;20860;-82
2021/07/24 02:14:49;;;;;;;16.13;13.10;;;;;;;13.57;100.00;92669.69;2111168;27;20046;-83
2021/07/24 02:15:50;;;;;;;16.38;13.27;;;;;;;13.62;100.00;92671.03;2120712;27;20483;-83
2021/07/24 02:16:51;;;;;;;17.02;13.50;;;;;;;13.67;100.00;92672.38;2112258;28;20051;-83
2021/07/24 02:17:52;;;;;;;18.15;13.48;;;;;;;13.67;100.00;92667.75;2120239;27;20106;-84
2021/07/24 02:18:55;;;;;;;17.40;13.52;;;;;;;13.70;100.00;92666.88;2120517;28;20023;-82
2021/07/24 02:19:58;;;;;;;17.02;13.73;;;;;;;13.68;100.00;92669.25;2108866;27;20032;-84
2021/07/24 02:21:03;;;;;;;22.02;13.23;;;;;;;13.70;100.00;92668.81;2111214;28;20051;-83
2021/07/24 02:22:04;;;;;;;18.27;13.38;;;;;;;13.75;100.00;92662.84;2105658;28;20550;-82
2021/07/24 02:23:06;;;;;;;18.05;13.52;;;;;;;13.78;100.00;92668.06;2112500;28;20032;-83
2021/07/24 02:24:07;;;;;;;18.65;13.65;;;;;;;13.76;100.00;92661.66;2107388;28;20350;-83
2021/07/24 02:25:08;;;;;;;20.60;13.88;;;;;;;13.77;100.00;92661.19;2108854;28;20070;-84
2021/07/24 02:26:11;;;;;;;17.13;13.30;;;;;;;13.75;100.00;92660.16;2106299;28;20029;-83
2021/07/24 02:27:12;;;;;;;20.23;13.43;;;;;;;13.76;100.00;92653.59;2118078;27;20019;-84
2021/07/24 02:28:13;;;;;;;17.40;13.55;;;;;;;13.76;100.00;92648.97;2120767;28;20457;-83
2021/07/24 02:29:14;;;;;;;17.95;12.90;;;;;;;13.78;100.00;92649.28;2112550;28;20389;-83
2021/07/24 02:30:16;;;;;;;20.88;13.93;;;;;;;13.78;100.00;92645.81;2110306;27;20802;-83
2021/07/24 02:31:17;;;;;;;17.40;13.60;;;;;;;13.81;100.00;92647.63;2112642;28;20067;-83
2021/07/24 02:32:18;;;;;;;18.77;13.88;;;;;;;13.80;100.00;92646.13;2116028;27;20032;-83
2021/07/24 02:33:19;;;;;;;17.17;13.10;;;;;;;13.85;100.00;92642.84;2111935;28;20032;-83
2021/07/24 02:34:20;;;;;;;17.58;13.15;;;;;;;13.82;100.00;92646.41;2101849;28;20024;-83
2021/07/24 02:35:21;;;;;;;18.42;13.25;;;;;;;13.85;100.00;92638.22;2101823;28;20020;-83
2021/07/24 02:36:22;;;;;;;16.77;13.18;;;;;;;13.86;100.00;92639.69;2108927;28;20074;-83
2021/07/24 02:37:22;;;;;;;18.05;13.75;;;;;;;13.87;100.00;92627.00;2110192;27;20016;-83
2021/07/24 02:38:23;;;;;;;16.65;13.23;;;;;;;13.86;100.00;92620.91;2111622;28;20034;-84
2021/07/24 02:39:24;;;;;;;16.55;13.40;;;;;;;13.89;100.00;92624.63;2111274;28;20061;-82
2021/07/24 02:40:25;;;;;;;17.15;14.13;;;;;;;13.95;100.00;92619.41;2111234;28;20038;-83
2021/07/24 02:41:26;;;;;;;16.88;13.40;;;;;;;13.95;100.00;92619.41;2113106;28;20539;-82
2021/07/24 02:42:27;;;;;;;18.67;14.00;;;;;;;13.97;100.00;92614.34;2111704;28;20089;-83
2021/07/24 02:43:28;;;;;;;16.70;13.07;;;;;;;14.00;100.00;92621.47;2105936;28;20506;-83
2021/07/24 02:44:29;;;;;;;16.52;13.10;;;;;;;14.02;100.00;92625.22;2116421;28;20106;-83
2021/07/24 02:45:30;;;;;;;17.60;12.75;;;;;;;14.06;100.00;92630.44;2112289;27;20024;-82
2021/07/24 02:46:31;;;;;;;19.27;13.70;;;;;;;14.08;100.00;92633.41;2110655;28;20031;-84
2021/07/24 02:47:32;;;;;;;19.00;13.68;;;;;;;14.09;100.00;92633.00;2119928;28;20047;-82
2021/07/24 02:48:33;;;;;;;18.33;13.15;;;;;;;14.07;100.00;92630.00;2110316;28;20024;-82
2021/07/24 02:49:34;;;;;;;19.38;13.35;;;;;;;14.07;100.00;92627.31;2112166;28;20028;-83
2021/07/24 02:50:35;;;;;;;20.60;13.02;;;;;;;14.02;100.00;92632.53;2111937;28;20484;-83
2021/07/24 02:51:36;;;;;;;17.73;13.05;;;;;;;14.03;100.00;92626.72;2101711;28;20020;-82
2021/07/24 02:52:37;;;;;;;15.57;13.02;;;;;;;14.03;100.00;92629.41;2111436;28;20019;-83
2021/07/24 02:53:37;;;;;;;16.73;13.40;;;;;;;14.03;100.00;92629.41;2109355;28;20460;-84
2021/07/24 02:54:38;;;;;;;15.60;12.75;;;;;;;14.03;100.00;92626.72;2109530;27;20029;-82
2021/07/24 02:55:39;;;;;;;17.35;12.98;;;;;;;14.01;100.00;92626.44;2119001;28;20492;-81
2021/07/24 02:56:40;;;;;;;16.90;12.75;;;;;;;14.04;100.00;92636.25;2120203;28;20027;-83
2021/07/24 02:57:41;;;;;;;19.95;13.02;;;;;;;14.04;100.00;92632.81;2110492;28;20019;-82
2021/07/24 02:58:42;;;;;;;15.75;13.43;;;;;;;14.02;100.00;92625.22;2120752;27;20027;-82
2021/07/24 02:59:43;;;;;;;16.17;12.60;;;;;;;14.02;100.00;92630.59;2129089;27;20024;-83
2021/07/24 03:00:44;;;;;;;19.10;13.98;;;;;;;14.06;100.00;92627.75;2128917;27;20027;-82
2021/07/24 03:01:45;;;;;;;18.15;14.23;;;;;;;14.07;100.00;92635.38;2120861;27;20023;-82
2021/07/24 03:02:46;;;;;;;18.02;13.35;;;;;;;14.07;100.00;92623.88;2112067;28;20031;-82
2021/07/24 03:03:47;;;;;;;16.95;12.65;;;;;;;14.08;100.00;92630.72;2114299;27;20057;-82
2021/07/24 03:04:48;;;;;;;16.27;12.63;;;;;;;14.05;100.00;92627.03;2112075;28;20062;-82
2021/07/24 03:05:49;;;;;;;19.80;13.73;;;;;;;14.06;100.00;92633.13;2103224;28;20698;-82
2021/07/24 03:06:50;;;;;;;16.25;12.50;;;;;;;14.06;100.00;92625.81;2103562;28;20025;-82
2021/07/24 03:07:51;;;;;;;16.20;13.10;;;;;;;14.07;100.00;92616.56;2104096;28;21250;-82
2021/07/24 03:08:52;;;;;;;17.60;13.27;;;;;;;14.07;100.00;92624.63;2121238;27;20054;-82
2021/07/24 03:09:53;;;;;;;16.90;13.73;;;;;;;14.07;100.00;92621.19;2120600;28;20109;-81
2021/07/24 03:10:54;;;;;;;19.55;13.45;;;;;;;14.10;100.00;92622.97;2112064;28;20392;-82
2021/07/24 03:11:55;;;;;;;15.73;13.02;;;;;;;14.07;100.00;92618.50;2111835;28;20024;-82
2021/07/24 03:12:56;;;;;;;18.05;12.20;;;;;;;14.10;100.00;92621.03;2112104;28;20043;-82
2021/07/24 03:13:56;;;;;;;17.15;12.82;;;;;;;14.13;100.00;92621.31;2117455;27;20015;-82
2021/07/24 03:14:57;;;;;;;18.40;12.30;;;;;;;14.15;100.00;92618.94;2107019;28;20066;-82
2021/07/24 03:15:58;;;;;;;17.15;12.65;;;;;;;14.17;100.00;92619.22;2111908;28;20047;-82
2021/07/24 03:16:59;;;;;;;19.23;13.15;;;;;;;14.17;100.00;92622.66;2111158;28;20031;-82
2021/07/24 03:18:00;;;;;;;17.67;13.60;;;;;;;14.17;100.00;92622.66;2108361;27;20062;-82
2021/07/24 03:19:02;;;;;;;18.23;13.75;;;;;;;14.14;100.00;92623.56;2118717;27;20019;-82
2021/07/24 03:20:05;;;;;;;17.20;13.00;;;;;;;14.17;100.00;92617.28;2114720;28;20016;-82
2021/07/24 03:21:06;;;;;;;16.00;12.27;;;;;;;14.20;100.00;92621.03;2112933;28;20032;-83
2021/07/24 03:22:07;;;;;;;17.42;13.10;;;;;;;14.20;100.00;92616.41;2106485;28;20473;-85
2021/07/24 03:23:07;;;;;;;14.35;12.77;;;;;;;14.23;100.00;92626.25;2106324;28;20882;-85
2021/07/24 03:24:08;;;;;;;20.95;12.60;;;;;;;14.25;100.00;92615.78;2097969;28;20028;-85
2021/07/24 03:25:09;;;;;;;19.25;12.88;;;;;;;14.25;100.00;92618.47;2113709;27;20024;-86
2021/07/24 03:26:11;;;;;;;15.27;12.18;;;;;;;14.25;100.00;92621.16;2106435;28;20062;-90
2021/07/24 03:27:15;;;;;;;17.77;13.55;;;;;;;14.30;100.00;92619.81;2100734;28;20021;-85
2021/07/24 03:28:16;;;;;;;19.90;13.52;;;;;;;14.29;100.00;92619.06;2098905;28;20424;-86
2021/07/24 03:29:17;;;;;;;19.83;13.02;;;;;;;14.29;100.00;92615.63;2098058;28;20024;-86
2021/07/24 03:30:18;;;;;;;17.05;13.02;;;;;;;14.33;100.00;92618.91;2106655;28;20024;-84
2021/07/24 03:31:19;;;;;;;17.55;13.27;;;;;;;14.29;100.00;92613.69;2114843;28;20031;-84
2021/07/24 03:32:20;;;;;;;15.00;11.70;;;;;;;14.32;100.00;92612.03;2104431;28;20055;-85
2021/07/24 03:33:21;;;;;;;16.65;11.90;;;;;;;14.29;100.00;92613.69;2106392;28;20019;-84
2021/07/24 03:34:22;;;;;;;16.98;12.55;;;;;;;14.33;100.00;92616.97;2106489;28;20031;-85
2021/07/24 03:35:23;;;;;;;16.02;12.70;;;;;;;14.35;100.00;92616.50;2114753;28;20024;-85
2021/07/24 03:36:24;;;;;;;17.80;11.90;;;;;;;14.36;100.00;92618.03;2114707;28;20016;-86
2021/07/24 03:37:25;;;;;;;17.05;12.45;;;;;;;14.32;100.00;92612.78;2108879;28;20020;-85
2021/07/24 03:38:27;;;;;;;17.05;12.20;;;;;;;14.31;100.00;92608.63;2097819;28;20092;-84
2021/07/24 03:39:28;;;;;;;16.63;12.95;;;;;;;14.28;100.00;92611.47;2098030;28;20505;-83
2021/07/24 03:40:29;;;;;;;19.10;13.30;;;;;;;14.28;100.00;92614.16;2105907;28;20123;-84
2021/07/24 03:41:34;;;;;;;16.98;12.10;;;;;;;14.28;100.00;92609.50;2107308;28;20775;-85
2021/07/24 03:42:34;;;;;;;17.40;12.50;;;;;;;14.29;100.00;92613.69;2108956;28;20023;-84
2021/07/24 03:43:35;;;;;;;17.02;13.07;;;;;;;14.26;100.00;92609.19;2097836;28;20454;-84
2021/07/24 03:44:36;;;;;;;15.80;12.05;;;;;;;14.26;100.00;92614.56;2098084;28;20036;-84
2021/07/24 03:45:37;;;;;;;16.88;11.95;;;;;;;14.24;100.00;92614.28;2106317;28;20016;-84
2021/07/24 03:46:38;;;;;;;17.52;13.05;;;;;;;14.27;100.00;92612.66;2106264;28;20028;-86
2021/07/24 03:47:39;;;;;;;16.15;13.00;;;;;;;14.28;100.00;92617.56;2114627;28;20065;-83
2021/07/24 03:48:40;;;;;;;16.88;12.55;;;;;;;14.25;100.00;92610.41;2113131;28;20027;-85
2021/07/24 03:49:41;;;;;;;17.67;12.98;;;;;;;14.24;100.00;92610.88;2106166;28;20024;-85
2021/07/24 03:50:46;;;;;;;18.13;12.50;;;;;;;14.28;100.00;92608.78;2097428;28;20455;-85
2021/07/24 03:51:47;;;;;;;17.60;12.43;;;;;;;14.23;100.00;92614.75;2098314;28;20031;-84
2021/07/24 03:52:48;;;;;;;17.83;12.73;;;;;;;14.21;100.00;92617.13;2105734;28;20486;-84
2021/07/24 03:53:49;;;;;;;16.10;12.70;;;;;;;14.23;100.00;92614.75;2106016;28;20028;-83
2021/07/24 03:54:49;;;;;;;16.08;12.57;;;;;;;14.25;100.00;92609.66;2114539;28;20072;-84
2021/07/24 03:55:51;;;;;;;17.13;12.43;;;;;;;14.25;100.00;92617.72;2106055;28;20020;-85
2021/07/24 03:56:52;;;;;;;16.65;12.43;;;;;;;14.26;100.00;92625.34;2098102;28;20108;-83
2021/07/24 03:57:56;;;;;;;17.65;12.50;;;;;;;14.26;100.00;92625.34;2105829;28;20020;-83
2021/07/24 03:58:57;;;;;;;17.08;12.20;;;;;;;14.26;100.00;92624.59;2106332;28;20032;-84
2021/07/24 04:00:01;;;;;;;15.77;12.10;;;;;;;14.26;100.00;92621.91;2097905;28;20029;-84
2021/07/24 04:01:06;;;;;;;17.33;12.60;;;;;;;14.30;100.00;92627.88;2102305;27;20731;-82
2021/07/24 04:02:11;;;;;;;18.67;12.80;;;;;;;14.32;100.00;92625.50;2110219;27;20024;-83
2021/07/24 04:03:12;;;;;;;15.85;12.18;;;;;;;14.31;100.00;92629.34;2114128;28;20572;-84
2021/07/24 04:04:16;;;;;;;18.35;12.27;;;;;;;14.33;100.00;92630.41;2106123;28;20020;-84
2021/07/24 04:05:20;;;;;;;16.20;13.00;;;;;;;14.29;100.00;92629.81;2106790;27;20043;-85
2021/07/24 04:06:29;;;;;;;15.90;12.20;;;;;;;14.29;100.00;92631.75;2110035;28;20044;-84
2021/07/24 04:07:30;;;;;;;17.02;12.68;;;;;;;14.28;100.00;92635.66;2097930;28;20025;-84
2021/07/24 04:08:32;;;;;;;19.08;12.63;;;;;;;14.31;100.00;92629.34;2099648;28;20059;-83
2021/07/24 04:09:33;;;;;;;15.60;12.30;;;;;;;14.34;100.00;92631.88;2118357;27;20023;-83
2021/07/24 04:10:35;;;;;;;16.67;12.60;;;;;;;14.33;100.00;92635.03;2106076;28;20086;-83
2021/07/24 04:11:36;;;;;;;16.52;12.40;;;;;;;14.32;100.00;92637.00;2090435;28;20500;-84
2021/07/24 04:12:41;;;;;;;17.77;11.68;;;;;;;14.32;100.00;92630.88;2099467;28;20025;-84
2021/07/24 04:13:42;;;;;;;17.23;12.00;;;;;;;14.37;100.00;92638.31;2098545;28;20024;-84
2021/07/24 04:14:45;;;;;;;18.52;12.95;;;;;;;14.36;100.00;92640.28;2090288;28;20083;-83
2021/07/24 04:15:46;;;;;;;16.35;12.00;;;;;;;14.40;100.00;92631.28;2093119;28;20033;-84
2021/07/24 04:16:47;;;;;;;14.27;11.55;;;;;;;14.43;100.00;92638.44;2098319;28;20028;-83
2021/07/24 04:17:48;;;;;;;14.77;11.77;;;;;;;14.48;100.00;92644.00;2115311;27;20024;-83
2021/07/24 04:18:49;;;;;;;16.88;12.20;;;;;;;14.50;100.00;92643.56;2113825;28;20030;-85
2021/07/24 04:19:51;;;;;;;17.67;12.88;;;;;;;14.47;100.00;92645.16;2109829;27;20108;-85
2021/07/24 04:20:52;;;;;;;20.35;11.95;;;;;;;14.45;100.00;92646.81;2101522;28;20024;-84
2021/07/24 04:21:53;;;;;;;16.30;12.80;;;;;;;14.47;100.00;92652.50;2100545;28;20389;-84
2021/07/24 04:22:54;;;;;;;15.70;12.27;;;;;;;14.46;100.00;92646.38;2089223;28;20032;-85
2021/07/24 04:23:55;;;;;;;17.10;12.63;;;;;;;14.46;100.00;92643.69;2096572;28;20432;-84
2021/07/24 04:24:56;;;;;;;16.13;12.68;;;;;;;14.46;100.00;92638.31;2097508;28;20484;-83
2021/07/24 04:25:57;;;;;;;17.25;12.43;;;;;;;14.49;100.00;92640.13;2101467;28;20029;-85
2021/07/24 04:26:58;;;;;;;15.75;12.90;;;;;;;14.52;100.00;92641.88;2101959;28;20464;-85
2021/07/24 04:27:58;;;;;;;16.05;11.80;;;;;;;14.57;100.00;92637.84;2103413;28;20024;-85
2021/07/24 04:28:59;;;;;;;16.20;11.30;;;;;;;14.55;100.00;92645.63;2092855;28;20016;-83
2021/07/24 04:30:00;;;;;;;19.52;12.25;;;;;;;14.56;100.00;92639.78;2088726;28;20432;-83
2021/07/24 04:31:01;;;;;;;16.17;11.80;;;;;;;14.57;100.00;92645.91;2108764;28;20016;-84
2021/07/24 04:32:03;;;;;;;19.00;13.82;;;;;;;14.52;100.00;92644.56;2100971;28;20016;-83
2021/07/24 04:33:04;;;;;;;18.05;12.85;;;;;;;14.55;100.00;92646.38;2108406;28;20478;-85
2021/07/24 04:34:05;;;;;;;18.42;12.73;;;;;;;14.57;100.00;92652.06;2105707;28;20028;-85
2021/07/24 04:35:06;;;;;;;19.73;13.20;;;;;;;14.58;100.00;92658.94;2099163;28;20024;-86
2021/07/24 04:36:07;;;;;;;21.23;12.70;;;;;;;14.63;100.00;92651.44;2100005;28;20017;-85
2021/07/24 04:37:09;;;;;;;14.40;12.00;;;;;;;14.59;100.00;92656.97;2097409;28;20465;-83
2021/07/24 04:38:10;;;;;;;17.45;11.95;;;;;;;14.66;100.00;92661.28;2101521;28;20090;-84
2021/07/24 04:39:11;;;;;;;16.33;12.35;;;;;;;14.68;100.00;92661.59;2092835;28;20091;-83
2021/07/24 04:40:12;;;;;;;18.33;12.65;;;;;;;14.69;100.00;92665.75;2095505;28;20546;-84
2021/07/24 04:41:18;;;;;;;17.08;13.38;;;;;;;14.76;100.00;92660.06;2103806;28;20019;-85
2021/07/24 04:42:18;;;;;;;16.38;12.52;;;;;;;14.77;100.00;92665.00;2095533;28;20023;-86
2021/07/24 04:43:19;;;;;;;16.42;13.02;;;;;;;14.79;100.00;92648.38;2094000;28;20027;-83
2021/07/24 04:44:20;;;;;;;15.57;12.30;;;;;;;14.89;100.00;92660.63;2104396;28;20030;-85
2021/07/24 04:45:21;;;;;;;14.93;11.95;;;;;;;14.94;100.00;92660.00;2097316;28;20020;-84
2021/07/24 04:46:22;;;;;;;14.98;12.23;;;;;;;14.97;100.00;92661.81;2088828;28;20593;-82